This is the latest recevied weather packets stored in our database for station/object KO4MMQ-10. If no packets are shown the sender has not sent any weather packets the latest 10 day(s).
| Time | Temp. | Humidity | Pressure | Rain* | Wind** | Luminosity | Snow |
|---|---|---|---|---|---|---|---|
| 1777726708 | 8.33° C | 88% | 1017.6 hPa | 0 mm | - | - | - |
| 1777726107 | 8.33° C | 90% | 1017.5 hPa | 0 mm | - | - | - |
| 1777724907 | 7.22° C | 92% | 1017.3 hPa | 0 mm | - | - | - |
| 1777723107 | 6.67° C | 91% | 1017.1 hPa | 0 mm | - | - | - |
| 1777722507 | 6.67° C | 91% | 1017 hPa | 0 mm | - | - | - |
| 1777720707 | 6.11° C | 91% | 1016.8 hPa | 0 mm | - | - | - |
| 1777718307 | 6.11° C | 88% | 1016.3 hPa | 0 mm | - | - | - |
| 1777716507 | 6.67° C | 85% | 1016.5 hPa | 0 mm | - | - | - |
| 1777715307 | 7.22° C | 84% | 1016.3 hPa | 0 mm | - | - | - |
| 1777713508 | 7.78° C | 83% | 1016.2 hPa | 0 mm | - | - | - |
| 1777712907 | 7.78° C | 81% | 1016.1 hPa | 0 mm | - | - | - |
| 1777712307 | 7.78° C | 80% | 1016.1 hPa | 0 mm | - | - | - |
| 1777711709 | 8.33° C | 79% | 1016 hPa | 0 mm | - | - | - |
| 1777711107 | 8.33° C | 81% | 1016.1 hPa | 0 mm | - | - | - |
| 1777708107 | 9.44° C | 74% | 1016.2 hPa | 0 mm | - | - | - |
| 1777707508 | 10° C | 73% | 1016.3 hPa | 0 mm | - | - | - |
| 1777705707 | 11.11° C | 68% | 1016.3 hPa | 0 mm | - | - | - |
| 1777705108 | 11.67° C | 65% | 1016.4 hPa | 0 mm | - | - | - |
| 1777702708 | 12.22° C | 61% | 1016.7 hPa | 0 mm | - | - | - |
| 1777701508 | 12.78° C | 58% | 1016.8 hPa | 0 mm | - | - | - |
| 1777700308 | 12.78° C | 58% | 1016.8 hPa | 0 mm | - | - | - |
| 1777699709 | 12.78° C | 57% | 1016.7 hPa | 0 mm | - | - | - |
| 1777697908 | 12.78° C | 56% | 1016.5 hPa | 0 mm | - | - | - |
| 1777696708 | 13.33° C | 54% | 1016.5 hPa | 0 mm | - | - | - |
| 1777694908 | 13.33° C | 53% | 1016 hPa | 0 mm | - | - | - |
* Rain latest hour (hover to see other rain measurements)
** Current wind speed in m/s (hover to see current wind gust speed)